createdAt,value
2019-05-23T00:01:53.613Z,11.91
2019-05-23T00:04:43.984Z,11.99
2019-05-23T00:07:33.075Z,11.98
2019-05-23T00:10:22.924Z,11.94
2019-05-23T00:13:02.294Z,11.93
2019-05-23T00:15:38.647Z,11.89
2019-05-23T00:18:10.541Z,11.84
2019-05-23T00:20:41.601Z,11.79
2019-05-23T00:23:13.230Z,11.60
2019-05-23T00:25:44.118Z,11.59
2019-05-23T00:28:15.540Z,11.57
2019-05-23T00:30:56.482Z,11.66
2019-05-23T00:33:28.162Z,11.67
2019-05-23T00:35:59.327Z,11.72
2019-05-23T00:38:31.616Z,11.74
2019-05-23T00:41:03.114Z,11.76
2019-05-23T00:43:34.034Z,11.67
2019-05-23T00:46:04.953Z,11.67
2019-05-23T00:48:36.661Z,11.51
2019-05-23T00:51:07.277Z,11.41
2019-05-23T00:53:38.788Z,11.33
2019-05-23T00:56:09.791Z,11.27
2019-05-23T00:58:41.052Z,11.22
2019-05-23T01:01:13.485Z,11.25
2019-05-23T01:03:43.518Z,11.11
2019-05-23T01:06:15.944Z,11.13
2019-05-23T01:08:47.032Z,11.15
2019-05-23T01:11:17.588Z,11.16
2019-05-23T01:13:48.244Z,11.19
2019-05-23T01:16:22.155Z,11.23
2019-05-23T01:18:53.596Z,11.21
2019-05-23T01:21:42.578Z,11.19
2019-05-23T01:24:23.015Z,11.18
2019-05-23T01:26:53.404Z,11.11
2019-05-23T01:29:25.633Z,11.16
2019-05-23T01:32:03.383Z,11.19
2019-05-23T01:34:34.249Z,11.17
2019-05-23T01:37:05.167Z,11.13
2019-05-23T01:39:36.324Z,11.17
2019-05-23T01:42:07.423Z,11.23
2019-05-23T01:44:37.560Z,11.23
2019-05-23T01:47:09.155Z,11.33
2019-05-23T01:49:40.917Z,11.35
2019-05-23T01:52:12.056Z,11.36
2019-05-23T01:54:42.612Z,11.29
2019-05-23T01:57:12.866Z,11.28
2019-05-23T01:59:42.916Z,11.22
2019-05-23T02:02:14.219Z,11.27
2019-05-23T02:04:45.579Z,11.28
2019-05-23T02:07:16.643Z,11.27
2019-05-23T02:09:46.737Z,11.23
2019-05-23T02:12:18.156Z,11.25
2019-05-23T02:14:50.011Z,11.24
2019-05-23T02:17:21.596Z,11.30
2019-05-23T02:19:52.047Z,11.29
2019-05-23T02:22:22.729Z,11.30
2019-05-23T02:24:53.133Z,11.28
2019-05-23T02:27:23.307Z,11.29
2019-05-23T02:29:55.469Z,11.28
2019-05-23T02:32:26.428Z,11.29
2019-05-23T02:34:57.925Z,11.34
2019-05-23T02:37:32.380Z,11.25
2019-05-23T02:40:13.929Z,11.47
2019-05-23T02:42:52.237Z,11.43
2019-05-23T02:45:26.063Z,11.53
2019-05-23T02:47:58.564Z,11.56
2019-05-23T02:50:51.190Z,11.59
2019-05-23T02:53:25.637Z,11.58
2019-05-23T02:55:58.674Z,11.60
2019-05-23T02:58:44.064Z,11.58
2019-05-23T03:01:36.886Z,11.59
2019-05-23T03:04:12.198Z,11.60
2019-05-23T03:06:43.953Z,11.59
2019-05-23T03:09:17.116Z,11.59
2019-05-23T03:11:49.077Z,11.58
2019-05-23T03:14:19.961Z,11.55
2019-05-23T03:16:52.252Z,11.52
2019-05-23T03:19:38.484Z,11.59
2019-05-23T03:22:56.139Z,11.52
2019-05-23T03:25:39.174Z,11.53
2019-05-23T03:28:12.841Z,11.51
2019-05-23T03:33:37.426Z,11.34
2019-05-23T03:36:08.475Z,11.32
2019-05-23T03:38:38.628Z,11.29
2019-05-23T03:41:08.616Z,11.25
2019-05-23T03:43:39.611Z,11.21
2019-05-23T03:46:11.258Z,11.23
2019-05-23T03:48:42.480Z,11.26
2019-05-23T03:51:13.546Z,11.28
2019-05-23T03:53:43.563Z,11.26
2019-05-23T03:56:13.574Z,11.31
2019-05-23T03:58:45.073Z,11.23
2019-05-23T04:01:16.511Z,11.29
2019-05-23T04:03:47.916Z,11.37
2019-05-23T04:06:18.572Z,11.39
2019-05-23T04:08:50.048Z,11.33
2019-05-23T04:11:20.992Z,11.31
2019-05-23T04:13:51.776Z,11.24
2019-05-23T04:16:23.133Z,11.20
2019-05-23T04:18:53.323Z,11.22
2019-05-23T04:21:24.852Z,11.20
2019-05-23T04:23:54.833Z,11.28
2019-05-23T04:26:24.849Z,11.40
2019-05-23T04:28:54.978Z,11.39
2019-05-23T04:31:25.156Z,11.42
2019-05-23T04:33:55.275Z,11.38
2019-05-23T04:36:25.738Z,11.40
2019-05-23T04:38:55.760Z,11.45
2019-05-23T04:41:26.212Z,11.46
2019-05-23T04:43:56.245Z,11.48
2019-05-23T04:46:26.212Z,11.52
2019-05-23T04:48:56.232Z,11.63
2019-05-23T04:51:27.093Z,11.71
2019-05-23T04:53:57.115Z,11.84
2019-05-23T04:56:27.267Z,11.97
2019-05-23T04:58:57.285Z,12.03
2019-05-23T05:01:27.273Z,12.07
2019-05-23T05:03:57.669Z,12.13
2019-05-23T05:06:27.893Z,12.25
2019-05-23T05:09:00.618Z,12.37
2019-05-23T05:11:31.212Z,12.52
2019-05-23T05:14:01.212Z,12.69
2019-05-23T05:16:32.467Z,12.78
2019-05-23T05:19:02.464Z,12.79
2019-05-23T05:21:33.352Z,12.83
2019-05-23T05:24:03.561Z,12.99
2019-05-23T05:26:33.624Z,13.05
2019-05-23T05:29:03.643Z,13.17
2019-05-23T05:31:33.641Z,13.26
2019-05-23T05:34:03.835Z,13.30
2019-05-23T05:36:33.864Z,13.37
2019-05-23T05:39:05.956Z,13.48
2019-05-23T05:41:36.823Z,13.51
2019-05-23T05:44:07.417Z,13.40
2019-05-23T05:46:37.408Z,13.43
2019-05-23T05:49:08.470Z,13.49
2019-05-23T05:51:38.980Z,13.61
2019-05-23T05:54:10.212Z,13.70
2019-05-23T05:56:41.460Z,13.81
2019-05-23T05:59:11.517Z,14.01
2019-05-23T06:01:41.850Z,14.09
2019-05-23T06:04:12.743Z,14.17
2019-05-23T06:06:44.381Z,14.28
2019-05-23T06:12:08.781Z,14.49
2019-05-23T06:14:39.220Z,14.51
2019-05-23T06:17:10.953Z,14.56
2019-05-23T06:19:41.720Z,14.66
2019-05-23T06:22:12.312Z,14.79
2019-05-23T06:24:49.116Z,14.90
2019-05-23T06:27:19.236Z,15.05
2019-05-23T06:29:49.379Z,15.18
2019-05-23T06:32:21.040Z,15.23
2019-05-23T06:34:52.471Z,15.25
2019-05-23T06:37:24.105Z,15.32
2019-05-23T06:39:54.065Z,15.35
2019-05-23T06:42:24.094Z,15.46
2019-05-23T06:44:55.348Z,15.39
2019-05-23T06:47:25.374Z,15.55
2019-05-23T06:49:55.371Z,15.67
2019-05-23T06:52:25.478Z,15.71
2019-05-23T06:54:59.451Z,15.76
2019-05-23T06:57:27.386Z,15.74
2019-05-23T06:59:57.478Z,15.70
2019-05-23T07:02:31.539Z,15.67
2019-05-23T07:04:59.591Z,15.60
2019-05-23T07:07:31.613Z,15.46
2019-05-23T07:10:02.619Z,15.61
2019-05-23T07:12:32.780Z,15.79
2019-05-23T07:15:05.677Z,15.87
2019-05-23T07:17:38.227Z,16.00
2019-05-23T07:20:10.441Z,16.20
2019-05-23T07:22:41.727Z,16.35
2019-05-23T07:25:11.988Z,16.37
2019-05-23T07:27:42.371Z,16.29
2019-05-23T07:30:17.917Z,16.22
2019-05-23T07:32:47.939Z,16.07
2019-05-23T07:35:19.199Z,15.95
2019-05-23T07:37:49.160Z,15.86
2019-05-23T07:40:19.357Z,15.76
2019-05-23T07:42:50.345Z,15.76
2019-05-23T07:45:34.123Z,15.76
2019-05-23T07:48:04.622Z,15.79
2019-05-23T07:50:34.604Z,15.81
2019-05-23T07:53:06.361Z,15.85
2019-05-23T07:55:38.065Z,15.87
2019-05-23T07:58:12.887Z,15.88
2019-05-23T08:00:49.139Z,15.91
2019-05-23T08:03:20.160Z,15.95
2019-05-23T08:05:50.549Z,16.05
2019-05-23T08:08:20.807Z,16.43
2019-05-23T08:10:50.802Z,16.79
2019-05-23T08:13:20.820Z,17.04
2019-05-23T08:15:51.494Z,17.27
2019-05-23T08:18:21.884Z,17.46
2019-05-23T08:20:51.834Z,17.63
2019-05-23T08:23:21.825Z,17.76
2019-05-23T08:25:52.145Z,17.75
2019-05-23T08:28:22.384Z,17.65
2019-05-23T08:30:52.393Z,17.67
2019-05-23T08:33:22.386Z,17.64
2019-05-23T08:35:53.271Z,17.61
2019-05-23T08:38:24.313Z,17.76
2019-05-23T08:40:56.326Z,17.85
2019-05-23T08:43:27.184Z,17.89
2019-05-23T08:45:58.269Z,18.07
2019-05-23T08:48:29.154Z,18.19
2019-05-23T08:50:59.726Z,18.10
2019-05-23T08:53:30.401Z,17.86
2019-05-23T08:56:00.963Z,17.64
2019-05-23T08:58:31.457Z,17.56
2019-05-23T09:01:02.750Z,17.47
2019-05-23T09:03:33.178Z,17.44
2019-05-23T09:06:03.350Z,17.32
2019-05-23T09:08:34.296Z,17.37
2019-05-23T09:11:05.082Z,17.46
2019-05-23T09:13:35.438Z,17.68
2019-05-23T09:16:05.659Z,17.85
2019-05-23T09:18:35.921Z,17.93
2019-05-23T09:21:07.565Z,18.11
2019-05-23T09:23:37.583Z,18.33
2019-05-23T09:26:07.640Z,18.45
2019-05-23T09:28:37.584Z,18.48
2019-05-23T09:31:08.568Z,18.43
2019-05-23T09:33:38.899Z,18.09
2019-05-23T09:36:09.770Z,18.09
2019-05-23T09:38:40.148Z,18.06
2019-05-23T09:41:10.871Z,18.17
2019-05-23T09:43:40.776Z,18.38
2019-05-23T09:46:11.281Z,18.60
2019-05-23T09:48:41.373Z,18.85
2019-05-23T09:51:11.349Z,18.79
2019-05-23T09:53:47.082Z,19.02
2019-05-23T09:56:13.358Z,19.14
2019-05-23T09:58:43.369Z,19.10
2019-05-23T10:01:14.952Z,18.85
2019-05-23T10:03:44.998Z,18.60
2019-05-23T10:06:15.092Z,18.35
2019-05-23T10:08:45.103Z,18.50
2019-05-23T10:11:15.695Z,18.90
2019-05-23T10:13:45.738Z,19.26
2019-05-23T10:16:15.838Z,19.37
2019-05-23T10:18:45.887Z,19.05
2019-05-23T10:21:15.895Z,18.88
2019-05-23T10:23:45.875Z,19.13
2019-05-23T10:26:16.060Z,19.18
2019-05-23T10:28:46.040Z,19.31
2019-05-23T10:31:17.694Z,19.47
2019-05-23T10:33:48.211Z,19.58
2019-05-23T10:36:18.905Z,19.75
2019-05-23T10:38:48.959Z,19.92
2019-05-23T10:41:18.982Z,19.91
2019-05-23T10:43:48.988Z,19.58
2019-05-23T10:46:19.371Z,19.29
2019-05-23T10:48:50.378Z,19.15
2019-05-23T10:51:20.916Z,18.94
2019-05-23T10:53:51.002Z,18.68
2019-05-23T10:56:21.849Z,18.77
2019-05-23T10:58:51.932Z,18.90
2019-05-23T11:01:21.921Z,19.23
2019-05-23T11:03:52.382Z,19.59
2019-05-23T11:06:22.366Z,19.73
2019-05-23T11:08:52.861Z,19.83
2019-05-23T11:11:24.820Z,19.95
2019-05-23T11:13:56.723Z,19.94
2019-05-23T11:16:26.934Z,20.05
2019-05-23T11:18:56.991Z,20.25
2019-05-23T11:21:27.504Z,20.22
2019-05-23T11:23:57.561Z,20.45
2019-05-23T11:26:27.563Z,20.65
2019-05-23T11:28:58.179Z,20.96
2019-05-23T11:31:28.299Z,21.20
2019-05-23T11:33:58.374Z,21.38
2019-05-23T11:36:35.805Z,21.53
2019-05-23T11:39:00.535Z,21.60
2019-05-23T11:41:31.212Z,21.49
2019-05-23T11:44:01.305Z,21.34
2019-05-23T11:46:32.944Z,21.14
2019-05-23T11:49:07.866Z,20.96
2019-05-23T11:51:38.978Z,21.06
2019-05-23T11:54:10.617Z,21.07
2019-05-23T11:56:42.747Z,21.01
2019-05-23T11:59:12.827Z,21.08
2019-05-23T12:01:44.581Z,21.12
2019-05-23T12:04:16.500Z,21.05
2019-05-23T12:09:40.351Z,21.36
2019-05-23T12:12:10.727Z,21.59
2019-05-23T12:14:41.499Z,21.79
2019-05-23T12:17:12.990Z,21.57
2019-05-23T12:19:42.899Z,21.29
2019-05-23T12:22:13.841Z,20.91
2019-05-23T12:24:43.929Z,20.58
2019-05-23T12:27:14.690Z,20.37
2019-05-23T12:29:44.735Z,20.50
2019-05-23T12:32:15.153Z,20.64
2019-05-23T12:35:08.070Z,20.77
2019-05-23T12:37:20.171Z,21.03
2019-05-23T12:39:49.087Z,21.24
2019-05-23T12:42:19.371Z,21.17
2019-05-23T12:44:50.594Z,21.32
2019-05-23T12:47:22.206Z,21.18
2019-05-23T12:49:53.848Z,21.13
2019-05-23T12:52:23.820Z,21.19
2019-05-23T12:54:54.330Z,21.34
2019-05-23T12:57:24.781Z,21.23
2019-05-23T12:59:55.850Z,21.34
2019-05-23T13:02:27.469Z,21.57
2019-05-23T13:04:59.826Z,21.69
2019-05-23T13:07:36.192Z,21.58
2019-05-23T13:10:02.442Z,21.67
2019-05-23T13:12:32.681Z,21.79
2019-05-23T13:15:02.838Z,21.86
2019-05-23T13:17:35.010Z,22.03
2019-05-23T13:20:09.439Z,21.89
2019-05-23T13:22:39.948Z,21.86
2019-05-23T13:25:11.310Z,21.88
2019-05-23T13:27:45.559Z,21.89
2019-05-23T13:30:15.829Z,22.04
2019-05-23T13:32:46.237Z,21.85
2019-05-23T13:35:16.805Z,21.46
2019-05-23T13:37:53.779Z,21.15
2019-05-23T13:40:19.047Z,21.00
2019-05-23T13:42:49.063Z,20.81
2019-05-23T13:45:19.945Z,20.82
2019-05-23T13:47:49.988Z,20.87
2019-05-23T13:50:20.110Z,21.04
2019-05-23T13:52:50.866Z,21.35
2019-05-23T13:55:21.218Z,21.60
2019-05-23T13:57:52.258Z,21.72
2019-05-23T14:00:24.638Z,21.86
2019-05-23T14:02:55.059Z,22.04
2019-05-23T14:05:25.522Z,22.11
2019-05-23T14:08:10.532Z,22.19
2019-05-23T14:10:28.640Z,22.28
2019-05-23T14:12:59.732Z,22.28
2019-05-23T14:15:43.980Z,22.34
2019-05-23T14:18:21.596Z,22.37
2019-05-23T14:20:51.915Z,22.51
2019-05-23T14:23:23.849Z,22.62
2019-05-23T14:25:55.598Z,22.35
2019-05-23T14:28:26.780Z,22.22
2019-05-23T14:31:10.640Z,22.23
2019-05-23T14:33:58.818Z,22.28
2019-05-23T14:36:48.525Z,22.36
2019-05-23T14:39:20.484Z,22.42
2019-05-23T14:41:57.769Z,22.32
2019-05-23T14:44:28.947Z,22.40
2019-05-23T14:47:18.788Z,22.48
2019-05-23T14:50:08.435Z,22.54
2019-05-23T14:52:45.636Z,22.39
2019-05-23T14:55:16.856Z,22.45
2019-05-23T14:57:48.069Z,22.35
2019-05-23T15:00:18.933Z,22.36
2019-05-23T15:02:48.975Z,22.51
2019-05-23T15:05:23.741Z,22.60
2019-05-23T15:07:54.190Z,22.92
2019-05-23T15:10:24.271Z,23.15
2019-05-23T15:12:54.281Z,23.07
2019-05-23T15:15:24.581Z,22.85
2019-05-23T15:17:57.173Z,22.80
2019-05-23T15:20:29.418Z,22.73
2019-05-23T15:23:00.223Z,22.70
2019-05-23T15:25:30.511Z,22.65
2019-05-23T15:28:00.911Z,22.55
2019-05-23T15:30:30.913Z,22.56
2019-05-23T15:33:01.000Z,22.43
2019-05-23T15:35:32.392Z,22.37
2019-05-23T15:38:02.405Z,22.18
2019-05-23T15:40:32.863Z,22.11
2019-05-23T15:43:03.298Z,22.18
2019-05-23T15:45:33.480Z,22.21
2019-05-23T15:48:03.701Z,22.28
2019-05-23T15:50:36.080Z,22.32
2019-05-23T15:53:10.721Z,22.42
2019-05-23T15:55:48.580Z,22.42
2019-05-23T15:58:23.040Z,22.22
2019-05-23T16:00:54.758Z,22.49
2019-05-23T16:03:31.531Z,23.14
2019-05-23T16:06:01.891Z,23.33
2019-05-23T16:08:31.969Z,23.78
2019-05-23T16:11:03.369Z,24.03
2019-05-23T16:13:33.930Z,23.80
2019-05-23T16:16:04.410Z,23.44
2019-05-23T16:18:34.525Z,22.99
2019-05-23T16:21:05.588Z,22.69
2019-05-23T16:23:37.301Z,22.52
2019-05-23T16:26:11.429Z,22.39
2019-05-23T16:28:39.199Z,22.33
2019-05-23T16:31:09.682Z,22.27
2019-05-23T16:33:43.331Z,22.18
2019-05-23T16:36:19.069Z,22.13
2019-05-23T16:38:49.909Z,22.09
2019-05-23T16:41:20.744Z,21.93
2019-05-23T16:43:51.249Z,21.88
2019-05-23T16:46:21.451Z,21.81
2019-05-23T16:48:52.913Z,21.77
2019-05-23T16:51:24.026Z,21.72
2019-05-23T16:53:54.416Z,21.73
2019-05-23T16:56:33.731Z,21.75
2019-05-23T16:59:18.510Z,21.65
2019-05-23T17:02:00.391Z,21.53
2019-05-23T17:04:29.926Z,21.47
2019-05-23T17:07:09.327Z,21.43
2019-05-23T17:10:08.138Z,21.44
2019-05-23T17:12:32.648Z,21.45
2019-05-23T17:15:04.278Z,21.45
2019-05-23T17:18:00.546Z,21.43
2019-05-23T17:20:19.471Z,21.29
2019-05-23T17:22:55.010Z,21.21
2019-05-23T17:25:35.902Z,21.19
2019-05-23T17:28:07.698Z,21.17
2019-05-23T17:30:48.554Z,21.23
2019-05-23T18:55:36.088Z,17.89
2019-05-23T18:58:07.295Z,17.76
2019-05-23T19:00:52.500Z,17.66
2019-05-23T19:03:23.109Z,17.49
2019-05-23T19:05:53.512Z,17.34
2019-05-23T19:08:23.623Z,17.25
2019-05-23T19:10:54.136Z,17.18
2019-05-23T19:13:26.528Z,17.09
2019-05-23T19:15:55.813Z,17.01
2019-05-23T19:18:26.958Z,16.90
2019-05-23T19:20:59.567Z,16.83
2019-05-23T19:23:29.505Z,16.74
2019-05-23T19:25:59.951Z,16.64
2019-05-23T19:28:31.908Z,16.55
2019-05-23T19:31:03.003Z,16.46
2019-05-23T19:33:34.826Z,16.36
2019-05-23T19:36:07.073Z,16.26
2019-05-23T19:38:37.151Z,16.18
2019-05-23T19:41:09.573Z,16.09
2019-05-23T19:43:39.573Z,16.00
2019-05-23T19:46:09.549Z,15.90
2019-05-23T19:48:41.683Z,15.83
2019-05-23T19:51:11.781Z,15.72
2019-05-23T19:53:41.956Z,15.66
2019-05-23T19:56:11.971Z,15.59
2019-05-23T19:58:42.776Z,15.55
2019-05-23T20:01:13.389Z,15.48
2019-05-23T20:03:43.893Z,15.42
2019-05-23T20:06:15.134Z,15.30
2019-05-23T20:08:47.270Z,15.23
2019-05-23T20:11:17.412Z,15.16
2019-05-23T20:13:47.481Z,15.07
2019-05-23T20:16:17.528Z,15.01
2019-05-23T20:18:48.507Z,14.96
2019-05-23T20:21:18.950Z,14.93
2019-05-23T20:23:48.978Z,14.85
2019-05-23T20:26:19.219Z,14.76
2019-05-23T20:28:49.224Z,14.68
2019-05-23T20:31:19.194Z,14.51
2019-05-23T20:33:50.073Z,14.51
2019-05-23T20:36:21.129Z,14.45
2019-05-23T20:38:51.055Z,14.38
2019-05-23T20:41:22.773Z,14.30
2019-05-23T20:43:52.856Z,14.24
2019-05-23T20:46:24.195Z,14.19
2019-05-23T20:48:54.203Z,14.12
2019-05-23T20:51:25.349Z,14.08
2019-05-23T20:53:55.375Z,14.04
2019-05-23T20:56:25.527Z,14.04
2019-05-23T20:58:55.635Z,14.01
2019-05-23T21:01:32.977Z,13.97
2019-05-23T21:04:03.004Z,13.93
2019-05-23T21:06:34.302Z,13.89
2019-05-23T21:09:06.401Z,13.82
2019-05-23T21:11:36.473Z,13.79
2019-05-23T21:14:06.479Z,13.72
2019-05-23T21:16:36.449Z,13.68
2019-05-23T21:19:06.458Z,13.67
2019-05-23T21:21:36.542Z,13.63
2019-05-23T21:24:07.615Z,13.55
2019-05-23T21:26:37.686Z,13.47
2019-05-23T21:29:07.692Z,13.38
2019-05-23T21:31:37.905Z,13.26
2019-05-23T21:34:07.923Z,13.25
2019-05-23T21:36:37.971Z,13.19
2019-05-23T21:39:10.083Z,13.17
2019-05-23T21:41:40.260Z,13.13
2019-05-23T21:44:10.279Z,13.06
2019-05-23T21:46:40.324Z,13.01
2019-05-23T21:49:10.364Z,12.97
2019-05-23T21:51:40.409Z,12.93
2019-05-23T21:54:10.486Z,12.90
2019-05-23T21:56:40.401Z,12.84
2019-05-23T21:59:10.415Z,12.83
2019-05-23T22:01:44.748Z,12.76
2019-05-23T22:04:22.020Z,12.66
2019-05-23T22:06:58.733Z,12.64
2019-05-23T22:09:29.431Z,12.61
2019-05-23T22:11:59.468Z,12.63
2019-05-23T22:14:29.560Z,12.52
2019-05-23T22:16:59.551Z,12.44
2019-05-23T22:19:29.774Z,12.41
2019-05-23T22:21:59.860Z,12.38
2019-05-23T22:24:29.971Z,12.27
2019-05-23T22:27:01.046Z,12.33
2019-05-23T22:29:31.055Z,12.30
2019-05-23T22:32:01.037Z,12.26
2019-05-23T22:34:33.059Z,12.22
2019-05-23T22:37:04.744Z,12.19
2019-05-23T22:39:34.844Z,12.18
2019-05-23T22:42:06.317Z,12.15
2019-05-23T22:44:36.270Z,12.07
2019-05-23T22:47:06.423Z,12.01
2019-05-23T22:49:36.402Z,12.03
2019-05-23T22:52:06.976Z,12.06
2019-05-23T22:54:36.946Z,12.05
2019-05-23T22:57:07.022Z,12.02
2019-05-23T22:59:37.566Z,12.00
2019-05-23T23:02:10.150Z,11.96
2019-05-23T23:04:40.155Z,11.95
2019-05-23T23:07:11.170Z,11.87
2019-05-23T23:09:41.185Z,11.82
2019-05-23T23:12:11.359Z,11.76
2019-05-23T23:14:41.373Z,11.73
2019-05-23T23:17:11.414Z,11.72
2019-05-23T23:19:41.413Z,11.67
2019-05-23T23:22:13.196Z,11.65
2019-05-23T23:24:43.173Z,11.58
2019-05-23T23:27:13.253Z,11.54
2019-05-23T23:29:43.594Z,11.51
2019-05-23T23:32:13.679Z,11.46
2019-05-23T23:34:43.650Z,11.45
2019-05-23T23:37:13.723Z,11.45
2019-05-23T23:39:43.653Z,11.44
2019-05-23T23:42:14.323Z,11.43
2019-05-23T23:44:43.543Z,11.44
2019-05-23T23:47:31.579Z,11.41
2019-05-23T23:50:19.306Z,11.29
2019-05-23T23:53:07.320Z,11.23
2019-05-23T23:55:55.294Z,11.07
2019-05-23T23:58:24.546Z,11.12
